Time;durP1;ratioP1;P1;durP2;ratioP2;P2;SDS_P1;SDS_P2;PMS_P1;PMS_P2;Temp;Humidity;BMP_temperature;BMP_pressure;BME280_temperature;BME280_humidity;BME280_pressure;Samples;Min_cycle;Max_cycle;Signal;HPM_P1;HPM_P2
2023/08/29 00:02:19;;;;;;;2.33;1.40;;;;;;;14.76;100.00;100894.59;6330096;28;20055;-71
2023/08/29 00:05:20;;;;;;;3.88;1.83;;;;;;;14.70;100.00;100887.91;6353506;28;20047;-71
2023/08/29 00:08:22;;;;;;;4.10;2.05;;;;;;;14.67;100.00;100890.78;6353363;28;20046;-71
2023/08/29 00:11:23;;;;;;;3.53;1.70;;;;;;;14.63;100.00;100885.81;6339079;28;20328;-71
2023/08/29 00:14:26;;;;;;;4.50;1.90;;;;;;;14.57;100.00;100880.91;6353329;28;20086;-71
2023/08/29 00:17:27;;;;;;;5.40;1.60;;;;;;;14.55;100.00;100877.53;6353261;28;20047;-71
2023/08/29 00:20:29;;;;;;;2.42;1.30;;;;;;;14.52;100.00;100880.38;6353263;28;20043;-71
2023/08/29 00:23:30;;;;;;;2.60;1.60;;;;;;;14.47;100.00;100873.56;6353272;28;20478;-71
2023/08/29 00:26:32;;;;;;;3.03;1.40;;;;;;;14.45;100.00;100866.72;6352961;28;20055;-71
2023/08/29 00:29:34;;;;;;;3.80;1.52;;;;;;;14.39;100.00;100864.47;6352741;28;20044;-76
2023/08/29 00:32:36;;;;;;;3.22;1.98;;;;;;;14.33;100.00;100860.44;6353090;28;20055;-76
2023/08/29 00:35:37;;;;;;;2.47;1.70;;;;;;;14.31;100.00;100857.06;6352584;28;20435;-75
2023/08/29 00:38:38;;;;;;;5.35;1.75;;;;;;;14.32;100.00;100853.47;6352762;28;20047;-76
2023/08/29 00:41:41;;;;;;;3.05;1.65;;;;;;;14.30;100.00;100842.13;6352659;28;20047;-75
2023/08/29 00:44:44;;;;;;;2.67;1.65;;;;;;;14.30;100.00;100843.94;6352567;28;20135;-76
2023/08/29 00:47:45;;;;;;;1.48;1.35;;;;;;;14.31;100.00;100840.34;6352584;28;20051;-75
2023/08/29 00:50:47;;;;;;;2.05;1.30;;;;;;;14.30;100.00;100833.34;6350331;28;20432;-76
2023/08/29 00:53:48;;;;;;;2.78;1.10;;;;;;;14.23;100.00;100830.28;6340064;28;20051;-76
2023/08/29 00:56:50;;;;;;;2.00;1.58;;;;;;;14.19;100.00;100827.00;6352379;28;20043;-76
2023/08/29 00:59:53;;;;;;;2.70;1.65;;;;;;;14.15;100.00;100853.75;6352183;28;20051;-75
2023/08/29 01:02:55;;;;;;;3.78;1.90;;;;;;;14.12;100.00;100854.78;6352243;28;20047;-76
2023/08/29 01:05:56;;;;;;;2.50;1.55;;;;;;;14.14;100.00;100863.47;6352025;28;20048;-75
2023/08/29 01:08:58;;;;;;;3.08;1.35;;;;;;;14.14;100.00;100874.03;6351998;28;20431;-76
2023/08/29 01:12:11;;;;;;;3.65;1.60;;;;;;;14.16;100.00;100879.22;6352222;28;20043;-76
2023/08/29 01:15:20;;;;;;;1.98;1.48;;;;;;;14.09;100.00;100891.16;6351647;28;20078;-76
2023/08/29 01:18:25;;;;;;;5.70;1.80;;;;;;;14.00;100.00;100900.53;6351730;28;20355;-76
2023/08/29 01:21:36;;;;;;;2.75;1.73;;;;;;;13.97;100.00;100908.66;6351689;28;20138;-76
2023/08/29 01:24:45;;;;;;;2.75;1.58;;;;;;;13.90;100.00;100908.22;6351435;28;20440;-76
2023/08/29 01:27:48;;;;;;;4.43;1.67;;;;;;;13.85;100.00;100907.66;6351619;28;20051;-75
2023/08/29 01:30:50;;;;;;;1.40;1.30;;;;;;;13.87;100.00;100905.75;6348416;28;20055;-76
2023/08/29 01:33:52;;;;;;;2.92;1.73;;;;;;;13.87;100.00;100911.03;6338594;28;20055;-76
2023/08/29 01:36:54;;;;;;;3.55;1.60;;;;;;;13.87;100.00;100912.84;6336454;28;20462;-76
2023/08/29 01:39:55;;;;;;;2.47;1.85;;;;;;;13.81;100.00;100911.44;6335126;28;20040;-76
2023/08/29 01:42:58;;;;;;;2.70;1.50;;;;;;;13.71;100.00;100907.66;6339232;28;20040;-76
2023/08/29 01:45:59;;;;;;;3.25;1.70;;;;;;;13.66;100.00;100909.75;6348656;28;20047;-75
2023/08/29 01:49:02;;;;;;;2.75;1.60;;;;;;;13.61;100.00;100912.69;6351266;28;20047;-76
2023/08/29 01:52:04;;;;;;;3.05;1.80;;;;;;;13.57;100.00;100913.81;6344760;28;20351;-76
2023/08/29 01:55:06;;;;;;;1.80;1.70;;;;;;;13.54;100.00;100910.56;6342363;28;20052;-76
2023/08/29 01:58:10;;;;;;;7.00;1.80;;;;;;;13.51;100.00;100911.59;6350908;28;20420;-75
2023/08/29 02:01:12;;;;;;;1.95;1.73;;;;;;;13.54;100.00;100921.13;6350812;28;20058;-76
2023/08/29 02:04:13;;;;;;;3.42;1.80;;;;;;;13.55;100.00;100922.81;6350855;28;20079;-75
2023/08/29 02:07:15;;;;;;;2.00;1.58;;;;;;;13.50;100.00;100923.09;6350441;28;20058;-75
2023/08/29 02:10:16;;;;;;;1.65;1.55;;;;;;;13.50;100.00;100917.81;6350628;28;20351;-75
2023/08/29 02:13:19;;;;;;;1.88;1.52;;;;;;;13.51;100.00;100916.88;6350609;28;20432;-75
2023/08/29 02:16:20;;;;;;;1.77;1.55;;;;;;;13.44;100.00;100916.41;6349137;28;20058;-76
2023/08/29 02:19:22;;;;;;;2.78;1.85;;;;;;;13.45;100.00;100917.25;6342803;28;20043;-75
2023/08/29 02:22:23;;;;;;;2.17;1.58;;;;;;;13.46;100.00;100924.22;6350644;28;20059;-75
2023/08/29 02:25:25;;;;;;;2.72;1.90;;;;;;;13.48;100.00;100921.47;6350172;28;20044;-75
2023/08/29 02:28:27;;;;;;;4.63;2.10;;;;;;;13.50;100.00;100914.34;6350166;28;20355;-75
2023/08/29 02:31:29;;;;;;;3.10;2.10;;;;;;;13.53;100.00;100922.03;6350522;28;20043;-76
2023/08/29 02:34:30;;;;;;;1.95;1.73;;;;;;;13.53;100.00;100920.25;6350185;28;20059;-75
2023/08/29 02:37:32;;;;;;;5.25;2.20;;;;;;;13.46;100.00;100913.66;6350345;28;20044;-75
2023/08/29 02:40:34;;;;;;;7.68;1.90;;;;;;;13.46;100.00;100921.59;6350113;28;20051;-76
2023/08/29 02:43:37;;;;;;;2.88;1.90;;;;;;;13.44;100.00;100916.41;6350458;28;20058;-75
2023/08/29 02:46:38;;;;;;;3.15;1.90;;;;;;;13.42;100.00;100906.88;6349972;28;20048;-76
2023/08/29 02:49:39;;;;;;;2.88;1.70;;;;;;;13.41;100.00;100907.84;6350318;28;20043;-75
2023/08/29 02:52:41;;;;;;;2.72;1.60;;;;;;;13.38;100.00;100919.41;6346642;28;20048;-75
2023/08/29 02:55:42;;;;;;;3.53;2.05;;;;;;;13.36;100.00;100912.56;6346731;28;20051;-75
2023/08/29 02:58:45;;;;;;;3.58;2.03;;;;;;;13.32;100.00;100911.06;6354453;28;20044;-76
2023/08/29 03:01:46;;;;;;;3.17;1.80;;;;;;;13.32;100.00;100909.25;6355133;28;20383;-75
2023/08/29 03:04:48;;;;;;;5.38;1.77;;;;;;;13.26;100.00;100911.41;6354736;28;20066;-75
2023/08/29 03:07:49;;;;;;;3.33;1.90;;;;;;;13.25;100.00;100904.44;6355008;28;20055;-75
2023/08/29 03:10:50;;;;;;;3.67;2.17;;;;;;;13.25;100.00;100899.16;6355126;28;20048;-75
2023/08/29 03:13:53;;;;;;;2.60;1.83;;;;;;;13.28;100.00;100899.81;6354763;28;20059;-75
2023/08/29 03:16:54;;;;;;;4.15;2.00;;;;;;;13.26;100.00;100893.78;6354750;28;20055;-75
2023/08/29 03:19:56;;;;;;;2.97;1.80;;;;;;;13.19;100.00;100881.91;6354568;28;20050;-76
2023/08/29 03:22:57;;;;;;;2.28;1.70;;;;;;;13.18;100.00;100891.59;6354777;28;20048;-75
2023/08/29 03:26:03;;;;;;;3.33;1.80;;;;;;;13.17;100.00;100892.56;6354333;28;20055;-75
2023/08/29 03:29:06;;;;;;;4.70;2.00;;;;;;;13.12;100.00;100894.59;6354567;28;20439;-75
2023/08/29 03:32:07;;;;;;;3.00;1.85;;;;;;;13.11;100.00;100892.91;6348615;28;20043;-75
2023/08/29 03:35:09;;;;;;;4.47;1.70;;;;;;;13.04;100.00;100901.31;6345217;28;20050;-75
2023/08/29 03:38:10;;;;;;;2.58;1.70;;;;;;;13.00;100.00;100902.44;6354265;28;20047;-75
2023/08/29 03:41:12;;;;;;;2.17;1.60;;;;;;;13.01;100.00;100898.84;6348756;28;20052;-75
2023/08/29 03:44:14;;;;;;;2.55;1.65;;;;;;;13.00;100.00;100892.72;6345064;28;20044;-75
2023/08/29 03:47:16;;;;;;;4.32;1.75;;;;;;;13.00;100.00;100894.53;6353767;28;20443;-75
2023/08/29 03:50:19;;;;;;;2.75;1.80;;;;;;;12.99;100.00;100877.84;6353976;28;20070;-75
2023/08/29 03:53:20;;;;;;;2.92;2.10;;;;;;;12.97;100.00;100881.50;6353842;28;20076;-75
2023/08/29 03:56:22;;;;;;;2.85;1.83;;;;;;;12.95;100.00;100871.91;6353547;28;20392;-75
2023/08/29 03:59:25;;;;;;;2.58;1.70;;;;;;;12.89;100.00;100866.16;6349371;28;20047;-76
2023/08/29 04:02:26;;;;;;;3.67;1.70;;;;;;;12.90;100.00;100865.22;6346621;28;20051;-75
2023/08/29 04:05:28;;;;;;;4.50;1.92;;;;;;;12.89;100.00;100859.09;6352768;28;20047;-75
2023/08/29 04:08:29;;;;;;;1.83;1.63;;;;;;;12.92;100.00;100864.19;6330481;28;20056;-76
2023/08/29 04:11:31;;;;;;;2.65;1.45;;;;;;;12.92;100.00;100858.06;6328124;28;20363;-75
2023/08/29 04:14:33;;;;;;;3.63;1.88;;;;;;;12.89;100.00;100863.50;6328184;28;20048;-76
2023/08/29 04:17:35;;;;;;;2.72;1.55;;;;;;;12.87;100.00;100855.69;6328021;28;20051;-75
2023/08/29 04:20:37;;;;;;;2.40;1.88;;;;;;;12.86;100.00;100854.00;6327741;28;20055;-75
2023/08/29 04:23:38;;;;;;;3.20;1.90;;;;;;;12.86;100.00;100847.91;6328445;28;20093;-75
2023/08/29 04:26:39;;;;;;;2.25;1.88;;;;;;;12.88;100.00;100841.56;6338846;28;20039;-75
2023/08/29 04:29:42;;;;;;;5.80;1.90;;;;;;;12.86;100.00;100835.56;6352984;28;20055;-75
2023/08/29 04:32:44;;;;;;;2.60;1.52;;;;;;;12.84;100.00;100829.50;6326408;28;20049;-75
2023/08/29 04:35:45;;;;;;;3.75;2.35;;;;;;;12.88;100.00;100827.53;6318248;28;20452;-75
2023/08/29 04:38:47;;;;;;;4.38;2.25;;;;;;;12.90;100.00;100818.59;6320726;28;20423;-71
2023/08/29 04:41:50;;;;;;;7.30;3.08;;;;;;;12.90;100.00;100825.66;6320613;28;20420;-71
2023/08/29 04:44:54;;;;;;;5.68;3.70;;;;;;;12.99;100.00;100825.09;6319326;28;20352;-71
2023/08/29 04:47:55;;;;;;;6.00;3.60;;;;;;;13.09;100.00;100830.63;6327330;28;20346;-71
2023/08/29 04:50:56;;;;;;;7.63;3.58;;;;;;;13.11;100.00;100831.38;6327161;28;20328;-71
2023/08/29 04:53:58;;;;;;;5.35;3.40;;;;;;;13.12;100.00;100828.63;6340908;28;20054;-71
2023/08/29 04:56:59;;;;;;;6.72;4.20;;;;;;;13.09;100.00;100826.22;6352331;28;20050;-71
2023/08/29 05:00:05;;;;;;;5.68;3.53;;;;;;;13.08;100.00;100832.44;6352102;28;20054;-71
2023/08/29 05:03:06;;;;;;;5.35;3.80;;;;;;;13.10;100.00;100821.78;6352361;28;20047;-71
2023/08/29 05:06:07;;;;;;;5.85;3.70;;;;;;;13.15;100.00;100828.44;6351828;28;20051;-71
2023/08/29 05:09:09;;;;;;;5.97;4.10;;;;;;;13.12;100.00;100825.16;6352212;28;20055;-71
2023/08/29 05:12:11;;;;;;;5.85;4.03;;;;;;;13.19;100.00;100829.13;6352053;28;20043;-71
2023/08/29 05:15:14;;;;;;;7.90;4.63;;;;;;;13.21;100.00;100825.41;6350758;28;20056;-71
2023/08/29 05:18:16;;;;;;;7.55;4.22;;;;;;;13.21;100.00;100825.41;6351811;28;20048;-71
2023/08/29 05:21:17;;;;;;;9.32;4.40;;;;;;;13.26;100.00;100830.44;6351926;28;20184;-71
2023/08/29 05:24:19;;;;;;;10.10;4.45;;;;;;;13.33;100.00;100833.56;6351701;28;20054;-71
2023/08/29 05:27:20;;;;;;;10.15;4.78;;;;;;;13.38;100.00;100829.66;6351396;28;20047;-71
2023/08/29 05:30:23;;;;;;;8.07;5.18;;;;;;;13.42;100.00;100825.03;6334111;28;20405;-71
2023/08/29 05:33:24;;;;;;;8.93;4.90;;;;;;;13.43;100.00;100824.09;6319283;28;20071;-71
2023/08/29 05:36:26;;;;;;;7.55;4.57;;;;;;;13.49;100.00;100825.47;6335582;28;20048;-71
2023/08/29 05:39:27;;;;;;;7.22;4.88;;;;;;;13.53;100.00;100827.00;6341453;28;20044;-71
2023/08/29 05:42:28;;;;;;;6.47;4.45;;;;;;;13.57;100.00;100834.63;6335977;28;20047;-72
2023/08/29 05:45:31;;;;;;;6.32;4.40;;;;;;;13.57;100.00;100842.53;6336669;28;20130;-71
2023/08/29 05:48:33;;;;;;;9.55;5.68;;;;;;;13.57;100.00;100846.97;6332272;28;20048;-71
2023/08/29 05:51:34;;;;;;;8.18;5.45;;;;;;;13.55;100.00;100843.59;6349825;28;20069;-71
2023/08/29 05:54:36;;;;;;;7.22;4.40;;;;;;;13.59;100.00;100843.31;6349196;28;20047;-71
2023/08/29 05:57:37;;;;;;;11.15;5.72;;;;;;;13.66;100.00;100851.66;6349777;28;20048;-71
2023/08/29 06:00:40;;;;;;;11.80;6.10;;;;;;;13.67;100.00;100853.34;6349350;28;20450;-71
2023/08/29 06:03:41;;;;;;;12.55;4.70;;;;;;;13.63;100.00;100851.88;6350252;28;20455;-72
2023/08/29 06:06:43;;;;;;;8.38;4.43;;;;;;;13.62;100.00;100847.53;6350507;28;20044;-71
2023/08/29 06:09:44;;;;;;;6.40;3.45;;;;;;;13.65;100.00;100853.47;6350814;28;20043;-71
2023/08/29 06:12:46;;;;;;;6.60;2.95;;;;;;;13.66;100.00;100847.22;6350694;28;20047;-71
2023/08/29 06:15:49;;;;;;;6.53;2.90;;;;;;;13.59;100.00;100853.88;6350502;28;20047;-72
2023/08/29 06:18:51;;;;;;;3.75;2.70;;;;;;;13.54;100.00;100841.91;6350553;28;20054;-71
2023/08/29 06:21:52;;;;;;;6.05;4.00;;;;;;;13.51;100.00;100842.94;6350712;28;20058;-72
2023/08/29 06:24:54;;;;;;;6.05;3.08;;;;;;;13.54;100.00;100839.28;6350337;28;20047;-72
2023/08/29 06:27:56;;;;;;;9.00;3.60;;;;;;;13.52;100.00;100826.16;6350433;28;20047;-72
2023/08/29 06:31:04;;;;;;;5.57;3.00;;;;;;;13.51;100.00;100832.38;6350678;22;20177;-72
2023/08/29 06:34:06;;;;;;;5.70;3.70;;;;;;;13.54;100.00;100828.72;6325468;28;20079;-72
2023/08/29 06:37:07;;;;;;;5.00;3.38;;;;;;;13.57;100.00;100826.69;6324937;28;20082;-72
2023/08/29 06:40:10;;;;;;;6.43;3.53;;;;;;;13.61;100.00;100825.56;6301086;28;20052;-72
2023/08/29 06:43:11;;;;;;;4.95;3.47;;;;;;;13.63;100.00;100825.47;6300080;28;20056;-72
2023/08/29 06:46:14;;;;;;;9.85;5.15;;;;;;;13.62;100.00;100839.59;6299736;28;20060;-72
2023/08/29 06:49:16;;;;;;;10.35;5.65;;;;;;;13.73;100.00;100846.84;6299998;28;20048;-72
2023/08/29 06:52:18;;;;;;;5.95;3.40;;;;;;;13.76;100.00;100842.19;6299904;28;20122;-72
2023/08/29 06:55:19;;;;;;;6.10;3.72;;;;;;;13.74;100.00;100845.91;6299603;28;20048;-72
2023/08/29 06:58:20;;;;;;;10.25;4.88;;;;;;;13.81;100.00;100845.41;6299727;28;20052;-73
2023/08/29 07:01:23;;;;;;;9.50;5.43;;;;;;;13.86;100.00;100848.59;6299793;28;20052;-73
2023/08/29 07:04:24;;;;;;;10.02;4.82;;;;;;;13.92;100.00;100849.97;6299629;28;20049;-72
2023/08/29 07:07:26;;;;;;;7.38;4.03;;;;;;;13.99;100.00;100851.28;6299426;28;20329;-72
2023/08/29 07:10:27;;;;;;;7.30;4.85;;;;;;;14.03;100.00;100860.66;6299510;28;20597;-72
2023/08/29 07:13:29;;;;;;;11.95;6.32;;;;;;;14.06;100.00;100857.84;6299837;28;20052;-72
2023/08/29 07:16:31;;;;;;;8.57;4.85;;;;;;;14.11;100.00;100865.47;6299213;28;20071;-72
2023/08/29 07:19:33;;;;;;;7.05;3.78;;;;;;;14.12;100.00;100864.50;6299246;28;20081;-72
2023/08/29 07:22:34;;;;;;;5.70;3.60;;;;;;;14.10;100.00;100853.19;6299571;28;20048;-72
2023/08/29 07:25:37;;;;;;;6.93;3.88;;;;;;;14.10;100.00;100856.69;6301799;28;20040;-72
2023/08/29 07:28:39;;;;;;;6.20;4.03;;;;;;;14.08;100.00;100857.72;6307711;28;20059;-72
2023/08/29 07:31:41;;;;;;;5.68;4.13;;;;;;;14.05;100.00;100850.88;6299415;28;20040;-72
2023/08/29 07:34:43;;;;;;;11.82;4.10;;;;;;;14.11;100.00;100846.97;6299235;28;20052;-72
2023/08/29 07:37:44;;;;;;;11.98;6.53;;;;;;;14.19;100.00;100844.66;6299381;28;20055;-72
2023/08/29 07:40:46;;;;;;;11.38;5.80;;;;;;;14.24;100.00;100847.84;6303698;28;20049;-72
2023/08/29 07:43:47;;;;;;;10.57;6.18;;;;;;;14.30;100.00;100851.84;6303608;28;20399;-72
2023/08/29 07:46:50;;;;;;;11.23;6.55;;;;;;;14.34;100.00;100848.06;6303628;28;20053;-72
2023/08/29 07:49:52;;;;;;;10.43;5.70;;;;;;;14.37;100.00;100858.44;6303610;28;20044;-72
2023/08/29 07:52:53;;;;;;;6.38;4.25;;;;;;;14.42;100.00;100857.16;6303484;28;20052;-72
2023/08/29 07:55:55;;;;;;;8.57;4.88;;;;;;;14.53;100.00;100863.56;6303297;28;20045;-72
2023/08/29 07:58:56;;;;;;;10.38;5.32;;;;;;;14.57;100.00;100870.34;6303279;28;20052;-72
2023/08/29 08:01:59;;;;;;;9.35;5.80;;;;;;;14.63;100.00;100864.66;6303252;28;20455;-72
2023/08/29 08:05:01;;;;;;;12.55;6.28;;;;;;;14.69;100.00;100867.69;6303001;28;20044;-72
2023/08/29 08:08:04;;;;;;;8.73;5.10;;;;;;;14.78;100.00;100865.38;6303412;28;20057;-72
2023/08/29 08:11:06;;;;;;;10.02;6.10;;;;;;;14.82;100.00;100875.66;6302961;28;20124;-72
2023/08/29 08:14:07;;;;;;;8.35;5.40;;;;;;;14.98;100.00;100875.41;6303271;28;20048;-70
2023/08/29 08:17:10;;;;;;;13.18;5.93;;;;;;;14.95;100.00;100873.84;6302772;28;20059;-72
2023/08/29 08:20:12;;;;;;;10.35;5.05;;;;;;;15.03;100.00;100883.03;6302996;28;20045;-72
2023/08/29 08:23:13;;;;;;;10.80;5.82;;;;;;;15.12;100.00;100883.22;6302898;28;20142;-72
2023/08/29 08:26:15;;;;;;;7.78;4.22;;;;;;;15.17;100.00;100880.25;6302451;28;20059;-72
2023/08/29 08:29:17;;;;;;;16.33;6.00;;;;;;;15.17;100.00;100874.97;6302533;28;20153;-72
2023/08/29 08:32:19;;;;;;;6.53;4.07;;;;;;;15.28;100.00;100868.94;6302691;28;20521;-72
2023/08/29 08:35:21;;;;;;;10.45;5.30;;;;;;;15.38;100.00;100878.75;6302518;28;20049;-70
2023/08/29 08:38:22;;;;;;;6.43;3.78;;;;;;;15.40;100.00;100882.16;6302498;28;20436;-70
2023/08/29 08:41:25;;;;;;;10.10;5.45;;;;;;;15.47;100.00;100890.50;6302304;28;20455;-70
2023/08/29 08:44:27;;;;;;;7.22;4.00;;;;;;;15.52;100.00;100888.34;6302829;28;20056;-70
2023/08/29 08:47:30;;;;;;;7.22;3.08;;;;;;;15.57;100.00;100880.09;6302307;28;20049;-72
2023/08/29 08:50:31;;;;;;;7.78;3.35;;;;;;;15.67;100.00;100884.66;6301919;28;20051;-70
2023/08/29 08:53:33;;;;;;;6.97;2.80;;;;;;;15.72;100.00;100886.97;6302319;28;20049;-70
2023/08/29 08:56:35;;;;;;;4.68;1.77;;;;;;;15.76;100.00;100880.50;6301875;28;20048;-70
2023/08/29 08:59:36;;;;;;;6.43;2.15;;;;;;;15.85;100.00;100882.47;6301908;28;20055;-70
2023/08/29 09:02:40;;;;;;;2.35;1.40;;;;;;;15.85;100.00;100881.59;6302022;28;20048;-70
2023/08/29 09:05:42;;;;;;;3.08;1.90;;;;;;;15.91;100.00;100889.97;6301548;28;20059;-70
2023/08/29 09:08:43;;;;;;;1.92;1.30;;;;;;;16.07;100.00;100889.66;6301801;28;20433;-70
2023/08/29 09:11:51;;;;;;;2.05;1.20;;;;;;;16.10;100.00;100888.59;6301620;28;20049;-70
2023/08/29 09:14:54;;;;;;;1.10;0.77;;;;;;;16.13;100.00;100883.09;6301435;28;20459;-70
2023/08/29 09:17:56;;;;;;;2.17;1.42;;;;;;;16.19;100.00;100885.25;6301410;28;20055;-70
2023/08/29 09:21:00;;;;;;;1.02;0.93;;;;;;;16.20;100.00;100879.00;6301308;28;20044;-71
2023/08/29 09:24:03;;;;;;;1.40;1.20;;;;;;;16.34;100.00;100892.06;6301328;28;20057;-71
2023/08/29 09:27:09;;;;;;;1.75;0.80;;;;;;;16.31;100.00;100880.88;6301272;28;20049;-70
2023/08/29 09:30:12;;;;;;;1.95;1.13;;;;;;;16.45;100.00;100875.34;6313018;28;20401;-70
2023/08/29 09:33:20;;;;;;;4.28;1.15;;;;;;;16.47;100.00;100879.56;6313052;28;20529;-67
2023/08/29 09:36:21;;;;;;;5.93;1.08;;;;;;;16.45;100.00;100884.16;6311566;28;20056;-67
2023/08/29 09:39:23;;;;;;;1.60;0.90;;;;;;;16.49;100.00;100882.13;6311586;28;20102;-69
2023/08/29 09:42:24;;;;;;;0.93;0.63;;;;;;;16.51;100.00;100882.00;6300815;28;20045;-68
2023/08/29 09:45:29;;;;;;;3.45;0.80;;;;;;;16.53;100.00;100885.38;6300843;28;20044;-69
2023/08/29 09:48:32;;;;;;;2.00;1.10;;;;;;;16.50;100.00;100878.50;6300721;28;20365;-71
2023/08/29 09:51:35;;;;;;;0.95;0.70;;;;;;;16.56;100.00;100880.69;6300601;28;20048;-70
2023/08/29 09:54:43;;;;;;;1.27;0.80;;;;;;;16.58;100.00;100884.06;6300555;28;20452;-71
2023/08/29 09:57:45;;;;;;;2.33;0.90;;;;;;;16.64;100.00;100878.28;6300583;28;20060;-70
2023/08/29 10:00:47;;;;;;;0.85;0.57;;;;;;;16.76;100.00;100875.66;6300035;28;20052;-71
2023/08/29 10:03:50;;;;;;;1.52;0.80;;;;;;;16.78;100.00;100868.44;6300339;28;20048;-71
2023/08/29 10:06:54;;;;;;;2.15;0.68;;;;;;;16.90;100.00;100867.50;6300357;28;20057;-70
2023/08/29 10:09:56;;;;;;;1.95;0.70;;;;;;;16.84;100.00;100873.28;6300223;28;20044;-71
2023/08/29 10:12:59;;;;;;;1.02;0.70;;;;;;;16.87;100.00;100870.41;6300496;28;20052;-69
2023/08/29 10:16:02;;;;;;;1.38;0.70;;;;;;;16.90;100.00;100860.38;6300000;28;20052;-70
2023/08/29 10:19:04;;;;;;;1.35;0.50;;;;;;;17.03;100.00;100856.75;6300498;28;20056;-71
2023/08/29 10:22:08;;;;;;;0.73;0.60;;;;;;;17.00;100.00;100852.53;6300288;28;20056;-71
2023/08/29 10:25:09;;;;;;;0.77;0.57;;;;;;;17.02;100.00;100847.94;6300178;28;20057;-70
2023/08/29 10:28:13;;;;;;;0.93;0.73;;;;;;;17.17;100.00;100851.22;6300328;28;20056;-69
2023/08/29 10:31:16;;;;;;;0.70;0.60;;;;;;;17.21;100.00;100842.00;6299991;28;20048;-71
2023/08/29 10:34:20;;;;;;;2.50;0.80;;;;;;;17.24;100.00;100842.63;6300076;28;20625;-70
2023/08/29 10:37:23;;;;;;;3.28;1.00;;;;;;;17.33;100.00;100848.19;6302319;28;20044;-68
2023/08/29 10:40:34;;;;;;;1.63;0.90;;;;;;;17.36;100.00;100840.81;6311315;28;20049;-70
2023/08/29 10:43:36;;;;;;;1.77;1.00;;;;;;;17.41;100.00;100843.94;6311297;28;20054;-70
2023/08/29 10:46:37;;;;;;;1.33;0.80;;;;;;;17.37;100.00;100844.31;6312758;28;20053;-70
2023/08/29 10:49:43;;;;;;;1.08;0.95;;;;;;;17.36;100.00;100834.66;6310804;28;20047;-69
2023/08/29 10:52:46;;;;;;;3.20;0.60;;;;;;;17.40;100.00;100841.41;6310970;28;20387;-70
2023/08/29 10:56:03;;;;;;;1.40;0.70;;;;;;;17.37;100.00;100834.53;6312070;28;20340;-70
2023/08/29 10:59:05;;;;;;;1.17;0.85;;;;;;;17.47;100.00;100829.31;6308624;28;20045;-71
2023/08/29 11:02:26;;;;;;;2.33;0.95;;;;;;;17.56;100.00;100822.41;6312335;28;20051;-70
2023/08/29 11:05:30;;;;;;;0.70;0.70;;;;;;;17.61;100.00;100822.88;6311007;28;20353;-70
2023/08/29 11:08:32;;;;;;;1.75;0.70;;;;;;;17.55;100.00;100823.38;6312140;28;20127;-70
2023/08/29 11:11:34;;;;;;;1.25;0.90;;;;;;;17.55;100.00;100818.06;6312132;28;20052;-70
2023/08/29 11:14:53;;;;;;;1.40;0.70;;;;;;;17.57;100.00;100808.97;6315440;28;20051;-70
2023/08/29 11:18:19;;;;;;;2.72;0.90;;;;;;;17.66;100.00;100804.72;6317034;28;20047;-70
2023/08/29 11:21:22;;;;;;;1.45;1.05;;;;;;;17.83;100.00;100809.53;6317678;28;20044;-71
2023/08/29 11:24:24;;;;;;;1.60;1.10;;;;;;;17.83;100.00;100806.88;6315148;28;20051;-70
2023/08/29 11:27:28;;;;;;;0.75;0.75;;;;;;;17.87;100.00;100800.34;6316822;28;20053;-70
2023/08/29 11:30:30;;;;;;;0.73;0.73;;;;;;;17.84;100.00;100795.25;6318628;28;20051;-70
2023/08/29 11:33:32;;;;;;;2.30;1.02;;;;;;;17.86;100.00;100795.16;6329114;28;20052;-70
2023/08/29 11:36:35;;;;;;;1.63;0.95;;;;;;;17.88;100.00;100793.19;6329000;28;20040;-69
2023/08/29 11:39:38;;;;;;;1.15;0.88;;;;;;;17.81;100.00;100790.22;6328889;28;20067;-71
2023/08/29 11:42:39;;;;;;;2.60;0.85;;;;;;;17.81;100.00;100792.03;6329037;28;20048;-71
2023/08/29 11:45:40;;;;;;;0.95;0.82;;;;;;;17.85;100.00;100793.44;6328505;28;20071;-71
2023/08/29 11:48:42;;;;;;;1.27;0.98;;;;;;;17.85;100.00;100791.66;6328937;28;20055;-69
2023/08/29 11:51:45;;;;;;;2.28;1.23;;;;;;;17.86;100.00;100793.34;6328721;28;20097;-71
2023/08/29 11:54:48;;;;;;;3.13;0.73;;;;;;;17.91;100.00;100791.13;6315532;28;20044;-71
2023/08/29 11:57:52;;;;;;;1.67;1.00;;;;;;;18.09;100.00;100791.41;6303375;28;20395;-69
2023/08/29 12:00:54;;;;;;;2.35;1.00;;;;;;;18.40;100.00;100791.47;6303189;28;20352;-69
2023/08/29 12:03:55;;;;;;;2.95;1.00;;;;;;;18.74;100.00;100798.25;6303220;28;20060;-70
2023/08/29 12:07:08;;;;;;;1.30;0.90;;;;;;;18.95;100.00;100790.22;6302814;28;20349;-70
2023/08/29 12:10:13;;;;;;;1.38;0.60;;;;;;;18.96;100.00;100793.72;6303194;28;20056;-70
2023/08/29 12:13:15;;;;;;;1.80;0.90;;;;;;;18.98;100.00;100783.75;6303114;28;20054;-70
2023/08/29 12:16:17;;;;;;;2.28;1.08;;;;;;;19.05;100.00;100778.75;6302900;28;20452;-72
2023/08/29 12:19:18;;;;;;;1.08;0.80;;;;;;;19.12;100.00;100779.88;6302814;28;20055;-71
2023/08/29 12:22:29;;;;;;;3.00;1.08;;;;;;;19.21;100.00;100773.72;6302960;28;20044;-72
2023/08/29 12:25:31;;;;;;;1.55;0.90;;;;;;;19.08;100.00;100767.84;6301940;28;20049;-70
2023/08/29 12:28:32;;;;;;;2.10;0.88;;;;;;;18.69;100.00;100771.19;6302862;28;20452;-70
2023/08/29 12:31:34;;;;;;;1.92;1.20;;;;;;;18.55;100.00;100774.19;6323354;22;20060;-73
2023/08/29 12:34:35;;;;;;;4.47;1.15;;;;;;;18.51;100.00;100762.09;6302479;28;20052;-74
2023/08/29 12:37:38;;;;;;;0.80;0.68;;;;;;;18.57;100.00;100764.22;6302292;28;20057;-74
2023/08/29 12:40:40;;;;;;;2.00;1.15;;;;;;;18.71;100.00;100755.94;6302235;28;20052;-74
2023/08/29 12:43:41;;;;;;;1.00;0.88;;;;;;;18.79;100.00;100762.41;6302157;28;20045;-74
2023/08/29 12:46:43;;;;;;;2.13;0.93;;;;;;;18.95;100.00;100752.94;6293990;28;20052;-70
2023/08/29 12:49:44;;;;;;;2.05;1.52;;;;;;;18.81;100.00;100758.66;6301952;28;20048;-70
2023/08/29 12:52:47;;;;;;;1.98;1.42;;;;;;;18.67;100.00;100757.16;6301997;28;20467;-70
2023/08/29 12:55:50;;;;;;;2.30;1.20;;;;;;;18.60;100.00;100755.16;6298624;28;20044;-70
2023/08/29 12:58:52;;;;;;;1.88;1.27;;;;;;;18.51;100.00;100759.44;6287671;28;20343;-74
2023/08/29 13:01:54;;;;;;;3.33;1.40;;;;;;;18.79;100.00;100757.91;6287703;28;20159;-74
2023/08/29 13:04:55;;;;;;;1.10;1.00;;;;;;;19.16;100.00;100741.34;6287159;28;20056;-74
2023/08/29 13:07:58;;;;;;;2.30;1.30;;;;;;;19.06;100.00;100745.81;6289976;28;20071;-74
2023/08/29 13:11:00;;;;;;;4.03;1.45;;;;;;;18.86;100.00;100747.59;6287842;28;20053;-74
2023/08/29 13:14:03;;;;;;;2.53;1.33;;;;;;;18.74;100.00;100744.16;6287411;28;20044;-73
2023/08/29 13:17:05;;;;;;;1.70;1.00;;;;;;;18.62;100.00;100739.88;6287298;28;20056;-73
2023/08/29 13:20:08;;;;;;;4.10;1.27;;;;;;;18.57;100.00;100737.63;6287202;28;20460;-74
2023/08/29 13:23:11;;;;;;;3.33;1.48;;;;;;;18.63;100.00;100741.59;6287392;28;20041;-70
2023/08/29 13:26:12;;;;;;;1.52;1.40;;;;;;;18.96;100.00;100729.81;6288866;28;20040;-70
2023/08/29 13:29:13;;;;;;;1.48;0.93;;;;;;;19.09;100.00;100727.75;6294999;28;20067;-71
2023/08/29 13:32:15;;;;;;;1.00;0.90;;;;;;;19.03;100.00;100725.63;6301118;28;20356;-70
2023/08/29 13:35:17;;;;;;;1.65;1.00;;;;;;;18.97;100.00;100724.34;6300647;28;20055;-70
2023/08/29 13:38:20;;;;;;;0.85;0.70;;;;;;;19.13;100.00;100730.97;6300434;28;20451;-70
2023/08/29 13:41:21;;;;;;;1.00;0.88;;;;;;;18.99;100.00;100735.72;6301018;28;20045;-73
2023/08/29 13:44:22;;;;;;;1.52;0.90;;;;;;;18.94;100.00;100729.09;6300759;28;20045;-70
2023/08/29 13:47:24;;;;;;;0.90;0.80;;;;;;;18.85;100.00;100722.78;6300829;28;20075;-70
2023/08/29 13:50:25;;;;;;;2.28;1.00;;;;;;;18.81;100.00;100715.19;6300510;28;20368;-70
2023/08/29 13:53:28;;;;;;;5.13;1.58;;;;;;;19.10;100.00;100713.44;6300896;28;20044;-70
2023/08/29 13:56:29;;;;;;;1.08;0.70;;;;;;;19.36;100.00;100713.75;6300432;28;20051;-71
2023/08/29 13:59:31;;;;;;;0.60;0.60;;;;;;;19.56;100.00;100705.75;6300467;28;20349;-70